Time;durP1;ratioP1;P1;durP2;ratioP2;P2;SDS_P1;SDS_P2;PMS_P1;PMS_P2;Temp;Humidity;BMP_temperature;BMP_pressure;BME280_temperature;BME280_humidity;BME280_pressure;Samples;Min_cycle;Max_cycle;Signal;HPM_P1;HPM_P2
2024/01/06 00:00:34;;;;;;;5.93;3.97;;;-2.10;99.90;-3.20;99841;;;;587138;244;24053;-76
2024/01/06 00:03:02;;;;;;;2.13;1.63;;;-2.10;99.90;-3.20;99835;;;;587477;245;24057;-77
2024/01/06 00:05:29;;;;;;;3.00;2.33;;;-2.00;99.90;-3.20;99840;;;;587091;245;24145;-79
2024/01/06 00:07:57;;;;;;;1.40;1.30;;;-2.00;99.90;-3.20;99840;;;;587094;245;24050;-75
2024/01/06 00:10:26;;;;;;;1.47;1.00;;;-2.10;99.90;-3.20;99854;;;;586286;245;24124;-76
2024/01/06 00:12:54;;;;;;;2.00;1.27;;;-2.00;99.90;-3.20;99844;;;;586954;245;24068;-76
2024/01/06 00:15:22;;;;;;;2.20;2.00;;;-2.10;99.90;-3.20;99849;;;;586912;245;24053;-78
2024/01/06 00:17:50;;;;;;;2.07;1.70;;;-2.00;99.90;-3.20;99847;;;;586986;245;24092;-77
2024/01/06 00:20:18;;;;;;;2.30;1.73;;;-2.00;99.90;-3.20;99841;;;;586789;245;24046;-78
2024/01/06 00:22:46;;;;;;;2.10;1.83;;;-2.10;99.90;-3.20;99834;;;;586842;245;24064;-79
2024/01/06 00:25:14;;;;;;;6.97;3.90;;;-2.00;99.90;-3.20;99842;;;;586753;245;24066;-79
2024/01/06 00:27:42;;;;;;;4.93;3.07;;;-2.00;99.90;-3.20;99836;;;;586633;245;24080;-80
2024/01/06 00:30:14;;;;;;;1.53;1.07;;;-2.10;99.90;-3.20;99845;;;;586241;245;24065;-77
2024/01/06 00:32:38;;;;;;;2.33;1.80;;;-2.00;99.90;-3.20;99839;;;;586692;243;24090;-80
2024/01/06 00:35:06;;;;;;;5.97;3.90;;;-2.00;99.90;-3.20;99844;;;;588307;244;24051;-78
2024/01/06 00:37:34;;;;;;;29.15;16.92;;;-2.10;99.90;-3.20;99849;;;;582836;244;46019;-80
2024/01/06 00:40:02;;;;;;;9.30;5.50;;;-2.00;99.90;-3.20;99842;;;;587849;244;24109;-78
2024/01/06 00:42:30;;;;;;;6.70;3.97;;;-2.00;99.90;-3.20;99845;;;;587634;244;24057;-79
2024/01/06 00:44:58;;;;;;;7.37;2.77;;;-2.00;99.90;-3.20;99853;;;;587674;244;24056;-77
2024/01/06 00:47:26;;;;;;;5.47;3.53;;;-2.00;99.90;-3.10;99851;;;;587868;244;24055;-78
2024/01/06 00:49:54;;;;;;;2.63;2.10;;;-2.00;99.90;-3.20;99845;;;;587608;244;24100;-83
2024/01/06 00:52:22;;;;;;;8.27;4.53;;;-2.00;99.90;-3.10;99850;;;;587367;245;24065;-83
2024/01/06 00:54:50;;;;;;;4.27;1.83;;;-2.00;99.90;-3.20;99846;;;;586858;245;24044;-80
2024/01/06 00:57:23;;;;;;;10.20;6.63;;;-2.00;99.90;-3.10;99850;;;;574974;246;24088;-77
2024/01/06 00:59:47;;;;;;;2.10;1.67;;;-2.00;99.90;-3.20;99858;;;;586632;245;24094;-80
2024/01/06 01:02:14;;;;;;;3.60;1.90;;;-2.00;99.90;-3.10;99855;;;;586872;245;24136;-80
2024/01/06 01:04:42;;;;;;;6.07;4.40;;;-2.00;99.90;-3.10;99862;;;;587026;245;24135;-78
2024/01/06 01:07:10;;;;;;;3.03;2.13;;;-2.00;99.90;-3.10;99869;;;;587241;245;24052;-80
2024/01/06 01:09:38;;;;;;;5.80;3.57;;;-2.00;99.90;-3.10;99872;;;;587043;245;24094;-79
2024/01/06 01:12:06;;;;;;;2.97;2.53;;;-2.00;99.90;-3.10;99869;;;;587077;245;24068;-77
2024/01/06 01:14:34;;;;;;;5.50;2.73;;;-2.00;99.90;-3.10;99854;;;;580484;246;24060;-77
2024/01/06 01:17:02;;;;;;;2.13;1.93;;;-2.00;99.90;-3.10;99860;;;;587122;245;24072;-77
2024/01/06 01:19:31;;;;;;;4.40;2.93;;;-2.00;99.90;-3.10;99854;;;;586907;245;24131;-77
2024/01/06 01:21:58;;;;;;;3.67;2.17;;;-2.00;99.90;-3.00;99856;;;;586986;245;24074;-76
2024/01/06 01:24:26;;;;;;;3.37;1.73;;;-1.90;99.90;-3.00;99848;;;;587040;245;24063;-80
2024/01/06 01:26:54;;;;;;;2.23;1.93;;;-1.90;99.90;-3.00;99860;;;;574557;246;24131;-78
2024/01/06 01:29:22;;;;;;;1.70;1.60;;;-1.90;99.90;-3.00;99872;;;;587063;245;24058;-80
2024/01/06 01:31:50;;;;;;;5.33;3.73;;;-1.90;99.90;-3.00;99861;;;;586107;245;24111;-76
2024/01/06 01:34:18;;;;;;;2.17;1.93;;;-1.80;99.90;-3.00;99866;;;;586701;245;24051;-78
2024/01/06 01:36:46;;;;;;;2.10;1.73;;;-1.80;99.90;-2.90;99869;;;;574280;246;24071;-77
2024/01/06 01:39:14;;;;;;;2.63;2.40;;;-1.80;99.90;-2.90;99862;;;;587008;245;24118;-77
2024/01/06 01:41:42;;;;;;;1.40;1.30;;;-1.80;99.90;-2.90;99861;;;;587026;245;24105;-78
2024/01/06 01:44:10;;;;;;;2.13;1.50;;;-1.80;99.90;-2.90;99870;;;;587666;242;24154;-76
2024/01/06 01:46:41;;;;;;;1.83;1.70;;;-1.70;99.90;-2.80;99874;;;;588220;244;24094;-77
2024/01/06 01:49:05;;;;;;;1.83;1.47;;;-1.70;99.90;-2.80;99877;;;;580146;245;24073;-76
2024/01/06 01:51:33;;;;;;;4.43;2.77;;;-1.70;99.90;-2.80;99875;;;;575486;245;24071;-77
2024/01/06 01:54:04;;;;;;;5.13;2.83;;;-1.70;99.90;-2.80;99888;;;;575319;245;24065;-75
2024/01/06 01:56:35;;;;;;;5.53;3.30;;;-1.60;99.90;-2.70;99885;;;;574733;245;24062;-78
2024/01/06 01:59:03;;;;;;;2.67;2.03;;;-1.60;99.90;-2.70;99881;;;;574748;245;24092;-78
2024/01/06 02:01:32;;;;;;;1.87;1.67;;;-1.50;99.90;-2.70;99883;;;;572943;245;24076;-77
2024/01/06 02:04:00;;;;;;;1.77;1.40;;;-1.50;99.90;-2.70;99884;;;;586302;245;24054;-77
2024/01/06 02:06:28;;;;;;;4.37;2.53;;;-1.50;99.90;-2.60;99888;;;;587206;245;24077;-76
2024/01/06 02:08:56;;;;;;;1.60;1.37;;;-1.50;99.90;-2.60;99890;;;;586715;245;24140;-78
2024/01/06 02:11:24;;;;;;;2.50;1.40;;;-1.50;99.90;-2.60;99888;;;;586858;245;24140;-76
2024/01/06 02:13:52;;;;;;;2.83;1.97;;;-1.50;99.90;-2.60;99890;;;;586754;245;24082;-80
2024/01/06 02:16:20;;;;;;;5.67;2.30;;;-1.50;99.90;-2.60;99891;;;;586981;245;24128;-79
2024/01/06 02:18:49;;;;;;;1.77;1.37;;;-1.40;99.90;-2.60;99884;;;;586869;245;24045;-81
2024/01/06 02:21:16;;;;;;;2.07;1.23;;;-1.40;99.90;-2.60;99886;;;;586738;245;24058;-79
2024/01/06 02:23:44;;;;;;;1.57;1.03;;;-1.40;99.90;-2.50;99886;;;;586636;245;24072;-77
2024/01/06 02:26:15;;;;;;;1.53;0.93;;;-1.40;99.90;-2.50;99881;;;;586522;245;24080;-77
2024/01/06 02:28:40;;;;;;;1.97;1.60;;;-1.40;99.90;-2.50;99878;;;;579340;246;24179;-77
2024/01/06 02:31:07;;;;;;;1.10;1.00;;;-1.30;99.90;-2.50;99884;;;;586501;245;24043;-80
2024/01/06 02:33:36;;;;;;;2.37;1.43;;;-1.30;99.90;-2.50;99880;;;;574664;246;24108;-81
2024/01/06 02:36:03;;;;;;;1.33;1.10;;;-1.30;99.90;-2.50;99874;;;;586450;245;24073;-80
2024/01/06 02:38:31;;;;;;;2.30;1.60;;;-1.30;99.90;-2.50;99879;;;;586695;245;24070;-77
2024/01/06 02:40:59;;;;;;;1.93;1.20;;;-1.30;99.90;-2.40;99877;;;;586610;245;24047;-78
2024/01/06 02:43:27;;;;;;;7.40;5.07;;;-1.30;99.90;-2.50;99875;;;;580833;245;46016;-78
2024/01/06 02:45:55;;;;;;;1.63;1.43;;;-1.30;99.90;-2.40;99876;;;;586652;245;24050;-78
2024/01/06 02:48:23;;;;;;;2.47;1.50;;;-1.30;99.90;-2.40;99880;;;;586546;245;24058;-76
2024/01/06 02:50:51;;;;;;;1.67;1.57;;;-1.30;99.90;-2.40;99881;;;;586667;245;24208;-76
2024/01/06 02:53:19;;;;;;;1.57;1.47;;;-1.20;99.90;-2.40;99880;;;;586613;245;24071;-77
2024/01/06 02:55:47;;;;;;;1.60;1.50;;;-1.30;99.90;-2.40;99898;;;;587190;243;24110;-81
2024/01/06 02:58:14;;;;;;;1.40;1.30;;;-1.20;99.90;-2.40;99885;;;;587899;244;24079;-82
2024/01/06 03:00:42;;;;;;;1.53;1.10;;;-1.20;99.90;-2.40;99893;;;;586943;244;24174;-78
2024/01/06 03:03:10;;;;;;;0.70;0.70;;;-1.20;99.90;-2.30;99891;;;;587814;244;24117;-81
2024/01/06 03:05:38;;;;;;;1.50;1.40;;;-1.20;99.90;-2.30;99885;;;;580476;245;24088;-82
2024/01/06 03:08:10;;;;;;;1.57;0.90;;;-1.20;99.90;-2.30;99885;;;;587543;244;24050;-78
2024/01/06 03:10:36;;;;;;;1.30;1.13;;;-1.20;99.90;-2.30;99882;;;;586376;244;24092;-81
2024/01/06 03:13:03;;;;;;;2.00;0.73;;;-1.20;99.90;-2.40;99887;;;;587067;244;24090;-81
2024/01/06 03:15:31;;;;;;;1.23;1.13;;;-1.20;99.90;-2.40;99889;;;;580254;246;24054;-81
2024/01/06 03:17:59;;;;;;;0.53;0.53;;;-1.20;99.90;-2.40;99883;;;;586877;245;24082;-77
2024/01/06 03:20:27;;;;;;;0.97;0.80;;;-1.20;99.90;-2.40;99892;;;;586955;245;24103;-77
2024/01/06 03:22:55;;;;;;;0.47;0.47;;;-1.20;99.90;-2.40;99894;;;;586827;245;24057;-77
2024/01/06 03:25:23;;;;;;;0.60;0.60;;;-1.30;99.90;-2.40;99896;;;;586747;245;25219;-76
2024/01/06 03:27:51;;;;;;;0.30;0.30;;;-1.30;99.90;-2.40;99907;;;;586797;245;24073;-79
2024/01/06 03:30:19;;;;;;;0.40;0.40;;;-1.30;99.90;-2.40;99894;;;;586868;245;24162;-77
2024/01/06 03:32:47;;;;;;;0.50;0.50;;;-1.30;99.90;-2.40;99889;;;;586781;245;24067;-78
2024/01/06 03:35:15;;;;;;;0.50;0.50;;;-1.20;99.90;-2.40;99894;;;;586496;245;24062;-79
2024/01/06 03:37:43;;;;;;;0.40;0.40;;;-1.30;99.90;-2.40;99898;;;;586530;245;24071;-79
2024/01/06 03:40:11;;;;;;;0.80;0.80;;;-1.30;99.90;-2.40;99898;;;;574342;246;24088;-76
2024/01/06 03:42:40;;;;;;;0.77;0.77;;;-1.30;99.90;-2.40;99898;;;;586467;245;25096;-77
2024/01/06 03:45:11;;;;;;;0.30;0.30;;;-1.30;99.90;-2.40;99908;;;;586593;245;24059;-75
2024/01/06 03:47:36;;;;;;;1.63;0.50;;;-1.30;99.90;-2.40;99915;;;;579275;246;24088;-79
2024/01/06 03:50:04;;;;;;;0.37;0.37;;;-1.30;99.90;-2.40;99925;;;;586663;245;24045;-75
2024/01/06 03:52:32;;;;;;;0.70;0.70;;;-1.30;99.90;-2.40;99927;;;;586572;245;24080;-76
2024/01/06 03:55:02;;;;;;;0.87;0.50;;;-1.30;99.90;-2.40;99922;;;;586491;245;24128;-77
2024/01/06 03:57:29;;;;;;;1.10;0.63;;;-1.30;99.90;-2.40;99923;;;;586562;245;24062;-76
2024/01/06 04:00:00;;;;;;;0.40;0.40;;;-1.30;99.90;-2.40;99930;;;;586522;245;24061;-76
2024/01/06 04:02:25;;;;;;;0.40;0.40;;;-1.30;99.90;-2.40;99935;;;;573513;246;24077;-78
2024/01/06 04:04:54;;;;;;;0.30;0.30;;;-1.30;99.90;-2.40;99939;;;;586960;245;24131;-77
2024/01/06 04:07:21;;;;;;;0.73;0.73;;;-1.30;99.90;-2.40;99938;;;;587388;243;24070;-76
2024/01/06 04:09:49;;;;;;;0.93;0.87;;;-1.30;99.90;-2.40;99936;;;;587872;244;24052;-76
2024/01/06 04:12:17;;;;;;;0.73;0.70;;;-1.30;99.90;-2.40;99940;;;;580247;245;24054;-76
2024/01/06 04:14:46;;;;;;;0.50;0.50;;;-1.30;99.90;-2.40;99936;;;;587448;244;24091;-77
2024/01/06 04:17:15;;;;;;;0.57;0.57;;;-1.30;99.90;-2.40;99947;;;;587167;244;25136;-77
2024/01/06 04:19:43;;;;;;;0.73;0.73;;;-1.30;99.90;-2.40;99950;;;;580108;245;24100;-76
2024/01/06 04:22:10;;;;;;;0.57;0.57;;;-1.30;99.90;-2.40;99948;;;;587133;244;24128;-78
2024/01/06 04:24:42;;;;;;;0.60;0.60;;;-1.30;99.90;-2.40;99950;;;;587413;244;24104;-77
2024/01/06 04:27:07;;;;;;;0.70;0.70;;;-1.30;99.90;-2.40;99940;;;;585852;245;24086;-76
2024/01/06 04:29:35;;;;;;;0.70;0.70;;;-1.30;99.90;-2.40;99947;;;;586747;245;24057;-78
2024/01/06 04:32:03;;;;;;;0.47;0.47;;;-1.30;99.90;-2.40;99941;;;;586988;245;24074;-77
2024/01/06 04:34:31;;;;;;;0.60;0.60;;;-1.30;99.90;-2.50;99947;;;;574016;246;24054;-80
2024/01/06 04:36:59;;;;;;;0.93;0.93;;;-1.30;99.90;-2.40;99962;;;;587222;245;24064;-76
2024/01/06 04:39:27;;;;;;;0.40;0.40;;;-1.30;99.90;-2.50;99958;;;;587288;245;24068;-78
2024/01/06 04:41:54;;;;;;;0.30;0.30;;;-1.40;99.90;-2.50;99959;;;;587255;245;24088;-76
2024/01/06 04:44:22;;;;;;;0.50;0.50;;;-1.40;99.90;-2.50;99962;;;;587051;245;24090;-80
2024/01/06 04:46:50;;;;;;;0.80;0.47;;;-1.40;99.90;-2.60;99965;;;;586877;245;24071;-77
2024/01/06 04:49:19;;;;;;;0.57;0.57;;;-1.40;99.90;-2.60;99956;;;;586981;245;24114;-76
2024/01/06 04:51:48;;;;;;;0.47;0.43;;;-1.40;99.90;-2.60;99956;;;;586955;245;24073;-77
2024/01/06 04:54:16;;;;;;;0.50;0.50;;;-1.50;99.90;-2.60;99959;;;;577985;246;24067;-76
2024/01/06 04:56:43;;;;;;;0.70;0.70;;;-1.50;99.90;-2.60;99962;;;;587178;245;24062;-76
2024/01/06 04:59:11;;;;;;;1.00;0.93;;;-1.50;99.90;-2.60;99966;;;;587191;244;24075;-77
2024/01/06 05:01:40;;;;;;;0.20;0.20;;;-1.50;99.90;-2.70;99966;;;;587457;245;24088;-82
2024/01/06 05:04:08;;;;;;;0.60;0.60;;;-1.60;99.90;-2.70;99962;;;;587125;245;24083;-81
2024/01/06 05:06:36;;;;;;;1.93;0.90;;;-1.60;99.90;-2.70;99967;;;;577378;246;24064;-82
2024/01/06 05:09:04;;;;;;;0.73;0.73;;;-1.50;99.90;-2.70;99967;;;;586989;245;24067;-82
2024/01/06 05:11:32;;;;;;;0.40;0.40;;;-1.60;99.90;-2.70;99971;;;;574724;246;25109;-81
2024/01/06 05:14:01;;;;;;;0.23;0.23;;;-1.60;99.90;-2.70;99960;;;;587138;245;24065;-82
2024/01/06 05:16:29;;;;;;;0.93;0.93;;;-1.60;99.90;-2.70;99972;;;;587362;245;24045;-83
2024/01/06 05:18:57;;;;;;;1.27;0.90;;;-1.60;99.90;-2.70;99968;;;;588080;242;24103;-77
2024/01/06 05:21:25;;;;;;;0.60;0.60;;;-1.50;99.90;-2.70;99973;;;;588056;244;24064;-82
2024/01/06 05:23:53;;;;;;;0.20;0.20;;;-1.60;99.90;-2.70;99979;;;;588038;244;24065;-78
2024/01/06 05:26:21;;;;;;;0.47;0.47;;;-1.60;99.90;-2.70;99988;;;;587760;244;24070;-79
2024/01/06 05:28:49;;;;;;;0.40;0.40;;;-1.60;99.90;-2.70;99985;;;;587165;244;24075;-77
2024/01/06 05:31:17;;;;;;;0.43;0.43;;;-1.60;99.90;-2.70;99989;;;;587195;244;24077;-77
2024/01/06 05:33:45;;;;;;;0.37;0.37;;;-1.60;99.90;-2.70;99996;;;;587142;244;24060;-76
2024/01/06 05:36:13;;;;;;;0.17;0.17;;;-1.60;99.90;-2.70;100000;;;;586647;244;24092;-77
2024/01/06 05:38:42;;;;;;;0.07;0.07;;;-1.60;99.90;-2.80;100005;;;;587232;245;24058;-76
2024/01/06 05:43:42;;;;;;;0.23;0.23;;;-1.60;99.90;-2.70;99998;;;;559414;255;24247;-82
2024/01/06 05:46:10;;;;;;;0.27;0.27;;;-1.60;99.90;-2.80;100000;;;;562083;255;24107;-82
2024/01/06 05:48:41;;;;;;;0.10;0.10;;;-1.60;99.90;-2.70;100007;;;;551921;256;24152;-81
2024/01/06 05:51:05;;;;;;;0.10;0.10;;;-1.60;99.90;-2.80;100007;;;;552279;257;24164;-80
2024/01/06 05:53:33;;;;;;;0.10;0.10;;;-1.60;99.90;-2.70;100011;;;;554254;256;24118;-81
2024/01/06 05:56:01;;;;;;;0.30;0.30;;;-1.60;99.90;-2.80;100020;;;;562297;251;24098;-82
2024/01/06 05:58:29;;;;;;;0.43;0.43;;;-1.60;99.90;-2.80;100028;;;;562421;254;24122;-81
2024/01/06 06:00:57;;;;;;;0.20;0.20;;;-1.60;99.90;-2.80;100026;;;;553704;256;24112;-81
2024/01/06 06:03:25;;;;;;;0.50;0.50;;;-1.60;99.90;-2.80;100033;;;;562441;254;24099;-79
2024/01/06 06:05:53;;;;;;;0.40;0.40;;;-1.60;99.90;-2.80;100036;;;;562361;251;24130;-82
2024/01/06 06:08:21;;;;;;;0.47;0.47;;;-1.70;99.90;-2.80;100038;;;;561813;255;24113;-82
2024/01/06 06:11:01;;;;;;;0.20;0.20;;;-1.70;99.90;-2.80;100037;;;;561656;252;24119;-81
2024/01/06 06:13:20;;;;;;;0.40;0.20;;;-1.60;99.90;-2.80;100024;;;;562919;252;24155;-81
2024/01/06 06:15:47;;;;;;;0.10;0.10;;;-1.70;99.90;-2.80;100026;;;;561600;255;24117;-81
2024/01/06 06:18:16;;;;;;;0.67;0.63;;;-1.60;99.90;-2.80;100033;;;;552594;256;24132;-82
2024/01/06 06:20:44;;;;;;;0.37;0.37;;;-1.60;99.90;-2.80;100036;;;;561413;252;24184;-81
2024/01/06 06:23:13;;;;;;;0.67;0.33;;;-1.60;99.90;-2.80;100038;;;;561262;251;24159;-80
2024/01/06 06:25:41;;;;;;;0.20;0.20;;;-1.70;99.90;-2.80;100039;;;;553153;256;24119;-81
2024/01/06 06:28:09;;;;;;;0.23;0.23;;;-1.60;99.90;-2.80;100045;;;;564189;255;24117;-82
2024/01/06 06:30:36;;;;;;;0.47;0.40;;;-1.60;99.90;-2.80;100055;;;;566174;252;24208;-81
2024/01/06 06:33:04;;;;;;;1.33;0.53;;;-1.70;99.90;-2.80;100061;;;;554210;254;24114;-81
2024/01/06 06:35:33;;;;;;;0.57;0.40;;;-1.70;99.90;-2.80;100065;;;;557052;254;24099;-81
2024/01/06 06:38:00;;;;;;;0.40;0.40;;;-1.70;99.90;-2.80;100075;;;;556491;254;24128;-82
2024/01/06 06:40:28;;;;;;;0.40;0.40;;;-1.70;99.90;-2.80;100064;;;;556789;254;24112;-81
2024/01/06 06:42:57;;;;;;;0.37;0.37;;;-1.70;99.90;-2.80;100081;;;;557269;254;24099;-80
2024/01/06 06:45:26;;;;;;;0.37;0.37;;;-1.70;99.90;-2.80;100076;;;;553455;258;24091;-82
2024/01/06 06:47:53;;;;;;;0.40;0.40;;;-1.70;99.90;-2.80;100078;;;;549048;258;24118;-82
2024/01/06 06:50:21;;;;;;;0.87;0.57;;;-1.70;99.90;-2.90;100076;;;;554967;256;24132;-82
2024/01/06 06:52:49;;;;;;;0.70;0.70;;;-1.70;99.90;-2.90;100064;;;;554209;253;24113;-80
2024/01/06 06:55:17;;;;;;;1.13;0.80;;;-1.70;99.90;-2.90;100068;;;;559271;256;25155;-82
2024/01/06 06:57:45;;;;;;;0.40;0.40;;;-1.70;99.90;-2.90;100067;;;;566464;251;24085;-81
2024/01/06 07:00:17;;;;;;;0.40;0.40;;;-1.80;99.90;-2.90;100073;;;;568263;252;24164;-82
2024/01/06 07:02:41;;;;;;;0.30;0.30;;;-1.80;99.90;-2.90;100077;;;;566775;252;24149;-81
2024/01/06 07:05:09;;;;;;;0.23;0.23;;;-1.80;99.90;-2.90;100094;;;;539473;261;24181;-82
2024/01/06 07:07:37;;;;;;;0.30;0.30;;;-1.80;99.90;-2.90;100087;;;;550286;256;24190;-81
2024/01/06 07:10:08;;;;;;;0.20;0.20;;;-1.70;99.90;-2.90;100081;;;;554905;256;24143;-80
2024/01/06 07:12:32;;;;;;;0.27;0.27;;;-1.70;99.90;-2.90;100086;;;;554376;255;25161;-81
2024/01/06 07:15:02;;;;;;;0.30;0.30;;;-1.70;99.90;-2.80;100086;;;;561183;250;24155;-81
2024/01/06 07:17:30;;;;;;;0.50;0.50;;;-1.60;99.90;-2.80;100084;;;;550437;258;24119;-81
2024/01/06 07:19:59;;;;;;;0.30;0.30;;;-1.60;99.90;-2.80;100086;;;;547143;260;24143;-80
2024/01/06 07:22:26;;;;;;;0.27;0.27;;;-1.60;99.90;-2.80;100084;;;;548625;258;24193;-82
2024/01/06 07:24:54;;;;;;;0.50;0.50;;;-1.60;99.90;-2.70;100084;;;;548840;258;24130;-81
2024/01/06 07:27:22;;;;;;;1.27;0.70;;;-1.60;99.90;-2.70;100082;;;;551173;258;24158;-80
2024/01/06 07:29:51;;;;;;;0.40;0.40;;;-1.50;99.90;-2.70;100100;;;;543993;262;24228;-79
2024/01/06 07:32:19;;;;;;;0.77;0.77;;;-1.60;99.90;-2.70;100097;;;;551390;257;24126;-80
2024/01/06 07:34:47;;;;;;;0.37;0.37;;;-1.50;99.90;-2.70;100102;;;;543446;258;24166;-81
2024/01/06 07:37:15;;;;;;;0.80;0.80;;;-1.50;99.90;-2.60;100108;;;;550508;258;24135;-81
2024/01/06 07:39:43;;;;;;;0.47;0.47;;;-1.50;99.90;-2.60;100111;;;;550283;258;24133;-81
2024/01/06 07:42:14;;;;;;;0.70;0.33;;;-1.40;99.90;-2.60;100117;;;;548616;260;24162;-81
2024/01/06 07:44:38;;;;;;;0.83;0.83;;;-1.40;99.90;-2.60;100120;;;;559363;255;24120;-80
2024/01/06 07:47:06;;;;;;;0.97;0.87;;;-1.40;99.90;-2.60;100124;;;;554486;256;24168;-80
2024/01/06 07:49:34;;;;;;;1.37;1.10;;;-1.40;99.90;-2.50;100124;;;;556718;255;24116;-80
2024/01/06 07:52:02;;;;;;;2.50;1.27;;;-1.40;99.90;-2.50;100125;;;;554865;254;24111;-80
2024/01/06 07:54:30;;;;;;;1.07;0.87;;;-1.40;99.90;-2.60;100126;;;;551485;257;24180;-80
2024/01/06 07:56:59;;;;;;;1.80;1.20;;;-1.40;99.90;-2.60;100130;;;;561016;253;24241;-80
2024/01/06 07:59:26;;;;;;;2.43;1.77;;;-1.40;99.90;-2.60;100128;;;;549105;260;24199;-80
2024/01/06 08:01:54;;;;;;;0.80;0.63;;;-1.40;99.90;-2.60;100126;;;;544097;261;24106;-80
2024/01/06 08:04:22;;;;;;;3.57;0.70;;;-1.40;99.90;-2.60;100128;;;;557322;254;24120;-80
2024/01/06 08:06:50;;;;;;;0.57;0.57;;;-1.40;99.90;-2.50;100145;;;;567782;252;25271;-81
2024/01/06 08:09:18;;;;;;;0.77;0.77;;;-1.40;99.90;-2.50;100148;;;;548031;258;24172;-82
2024/01/06 08:11:48;;;;;;;1.60;1.50;;;-1.30;99.90;-2.50;100151;;;;560981;254;24098;-81
2024/01/06 08:14:16;;;;;;;0.33;0.33;;;-1.30;99.90;-2.40;100161;;;;558677;256;25167;-81
2024/01/06 08:16:42;;;;;;;2.03;1.10;;;-1.20;99.90;-2.40;100160;;;;558746;252;25134;-80
2024/01/06 08:19:13;;;;;;;1.50;1.40;;;-1.20;99.90;-2.40;100149;;;;559052;252;24111;-80
2024/01/06 08:21:38;;;;;;;1.87;0.90;;;-1.20;99.90;-2.30;100158;;;;560391;255;24111;-80
2024/01/06 08:24:06;;;;;;;2.07;0.93;;;-1.10;99.90;-2.30;100151;;;;560417;252;24112;-80
2024/01/06 08:26:34;;;;;;;0.77;0.77;;;-1.10;99.90;-2.30;100164;;;;558378;254;24090;-80
2024/01/06 08:29:02;;;;;;;2.17;1.60;;;-1.10;99.90;-2.20;100172;;;;557963;252;24166;-80
2024/01/06 08:31:30;;;;;;;1.40;1.30;;;-1.10;99.90;-2.20;100178;;;;546076;257;24178;-79
2024/01/06 08:33:58;;;;;;;0.83;0.70;;;-1.00;99.90;-2.20;100176;;;;561119;252;24139;-84
2024/01/06 08:36:26;;;;;;;0.80;0.80;;;-1.00;99.90;-2.10;100178;;;;556355;257;24161;-81
2024/01/06 08:38:54;;;;;;;0.60;0.60;;;-0.80;99.90;-2.00;100175;;;;557445;254;24112;-81
2024/01/06 08:41:25;;;;;;;1.70;1.43;;;-0.80;99.90;-2.00;100180;;;;565550;252;24084;-81
2024/01/06 08:44:03;;;;;;;;;;;;;;;;;;;;;
2024/01/06 08:46:24;;;;;;;0.40;0.40;;;-0.70;99.90;-1.90;100183;;;;549156;252;25183;-80
2024/01/06 08:48:51;;;;;;;1.33;1.27;;;-0.70;99.90;-1.90;100188;;;;559034;253;24078;-80
2024/01/06 08:51:20;;;;;;;1.80;1.13;;;-0.60;99.90;-1.80;100193;;;;565302;252;24118;-82
2024/01/06 08:53:50;;;;;;;1.17;1.03;;;-0.60;99.90;-1.80;100213;;;;551330;256;24198;-81
2024/01/06 08:56:21;;;;;;;1.07;0.90;;;-0.60;99.90;-1.80;100194;;;;559402;254;24097;-79
2024/01/06 08:58:46;;;;;;;1.30;0.77;;;-0.60;99.90;-1.80;100199;;;;552900;255;24107;-81
2024/01/06 09:01:15;;;;;;;0.97;0.97;;;-0.60;99.90;-1.80;100205;;;;550561;255;24176;-81
2024/01/06 09:03:47;;;;;;;1.20;1.20;;;-0.60;99.90;-1.70;100198;;;;566640;251;24083;-80
2024/01/06 09:06:11;;;;;;;0.87;0.87;;;-0.60;99.90;-1.60;100207;;;;557632;255;24177;-81
2024/01/06 09:08:44;;;;;;;0.50;0.50;;;-0.50;99.90;-1.60;100207;;;;553756;256;24159;-81
2024/01/06 09:11:12;;;;;;;1.00;1.00;;;-0.50;99.90;-1.60;100206;;;;554095;257;24111;-79
2024/01/06 09:13:40;;;;;;;0.90;0.90;;;-0.40;99.90;-1.50;100204;;;;558258;252;24091;-81
2024/01/06 09:16:08;;;;;;;0.90;0.90;;;-0.40;99.90;-1.60;100210;;;;557824;256;24115;-80
2024/01/06 09:18:41;;;;;;;1.80;0.90;;;-0.30;99.90;-1.50;100204;;;;567234;251;24090;-81
2024/01/06 09:21:09;;;;;;;0.53;0.53;;;-0.30;99.90;-1.50;100223;;;;581063;246;24042;-80
2024/01/06 09:23:37;;;;;;;1.03;1.03;;;-0.30;99.90;-1.50;100214;;;;562034;251;24126;-80
2024/01/06 09:26:06;;;;;;;0.77;0.70;;;-0.20;99.90;-1.40;100222;;;;567132;252;24146;-81
2024/01/06 09:28:34;;;;;;;0.47;0.47;;;-0.20;99.90;-1.40;100216;;;;549678;256;24133;-81
2024/01/06 09:31:02;;;;;;;0.50;0.50;;;-0.20;99.90;-1.40;100228;;;;545299;256;24138;-80
2024/01/06 09:33:33;;;;;;;0.87;0.83;;;-0.20;99.90;-1.40;100233;;;;566339;251;24111;-81
2024/01/06 09:35:58;;;;;;;1.10;1.10;;;-0.10;99.90;-1.40;100234;;;;556808;256;24146;-80
2024/01/06 09:38:25;;;;;;;1.77;0.80;;;-0.10;99.90;-1.30;100238;;;;548146;260;24168;-83
2024/01/06 09:40:57;;;;;;;0.53;0.53;;;-0.10;99.90;-1.30;100254;;;;543971;257;24118;-79
2024/01/06 09:43:22;;;;;;;1.00;0.63;;;-0.10;99.90;-1.30;100250;;;;554408;256;24116;-82
2024/01/06 09:45:49;;;;;;;0.63;0.63;;;-0.10;99.90;-1.30;100253;;;;552290;255;24091;-80
2024/01/06 09:48:17;;;;;;;0.83;0.70;;;-0.10;99.90;-1.30;100251;;;;552047;252;24109;-80
2024/01/06 09:50:45;;;;;;;1.00;1.00;;;-0.10;99.90;-1.30;100248;;;;563448;252;24092;-80
2024/01/06 09:53:14;;;;;;;0.70;0.70;;;0.00;99.90;-1.30;100256;;;;562257;252;24131;-79
2024/01/06 09:55:42;;;;;;;0.80;0.80;;;-0.10;99.90;-1.20;100252;;;;554685;257;24152;-81
2024/01/06 09:58:10;;;;;;;0.73;0.73;;;0.00;99.90;-1.10;100256;;;;545160;259;24135;-79
2024/01/06 10:00:37;;;;;;;0.67;0.67;;;0.00;99.90;-1.10;100256;;;;568107;244;24049;-81
2024/01/06 10:03:07;;;;;;;0.20;0.20;;;0.10;99.90;-1.10;100264;;;;561053;254;24160;-77
2024/01/06 10:05:35;;;;;;;0.20;0.20;;;0.10;99.90;-1.10;100271;;;;550061;258;24212;-77
2024/01/06 10:08:06;;;;;;;0.33;0.33;;;0.10;99.90;-1.00;100269;;;;550068;256;24124;-78
2024/01/06 10:10:31;;;;;;;0.40;0.40;;;0.10;99.90;-1.00;100270;;;;553952;257;24189;-78
2024/01/06 10:12:58;;;;;;;0.60;0.60;;;0.20;99.90;-1.00;100265;;;;549202;257;24132;-78
2024/01/06 10:15:27;;;;;;;0.40;0.40;;;0.20;99.90;-1.00;100260;;;;561951;251;24132;-80
2024/01/06 10:17:58;;;;;;;0.60;0.60;;;0.20;99.90;-1.00;100268;;;;563551;251;24128;-80
2024/01/06 10:20:23;;;;;;;1.43;0.87;;;0.20;99.90;-1.00;100270;;;;560420;251;24143;-79
2024/01/06 10:22:51;;;;;;;0.90;0.90;;;0.20;99.90;-0.90;100277;;;;548563;259;24125;-79
2024/01/06 10:25:20;;;;;;;0.47;0.47;;;0.30;99.90;-1.00;100282;;;;562604;252;24145;-78
2024/01/06 10:27:48;;;;;;;1.53;0.80;;;0.30;99.90;-0.90;100278;;;;562765;250;24105;-78
2024/01/06 10:30:18;;;;;;;0.30;0.30;;;0.20;99.90;-1.00;100279;;;;566391;250;24116;-79
2024/01/06 10:32:44;;;;;;;0.30;0.30;;;0.20;99.90;-0.90;100271;;;;568283;247;24082;-80
2024/01/06 10:35:12;;;;;;;0.22;0.22;;;0.20;99.90;-0.90;100272;;;;563194;251;35311;-78
2024/01/06 10:37:40;;;;;;;0.53;0.40;;;0.30;99.90;-0.90;100283;;;;567653;250;24107;-80
2024/01/06 10:40:09;;;;;;;0.20;0.20;;;0.30;99.90;-1.00;100279;;;;559870;251;24080;-80
2024/01/06 10:42:43;;;;;;;0.10;0.10;;;0.30;99.90;-1.00;100267;;;;567356;247;24092;-79
2024/01/06 10:45:09;;;;;;;0.40;0.40;;;0.30;99.90;-0.90;100273;;;;559345;252;24083;-79
2024/01/06 10:47:35;;;;;;;0.30;0.30;;;0.30;99.90;-1.00;100275;;;;566874;252;24105;-79
2024/01/06 10:50:07;;;;;;;0.30;0.30;;;0.30;99.90;-0.90;100277;;;;556928;252;24098;-80
2024/01/06 10:52:35;;;;;;;0.30;0.30;;;0.30;99.90;-0.90;100275;;;;568017;251;24109;-80
2024/01/06 10:54:59;;;;;;;0.83;0.83;;;0.30;99.90;-0.90;100264;;;;566985;252;24086;-80
2024/01/06 10:57:28;;;;;;;1.03;1.03;;;0.40;99.90;-0.80;100278;;;;567767;252;24115;-80
2024/01/06 10:59:56;;;;;;;1.53;1.03;;;0.40;99.90;-0.80;100286;;;;557938;253;24127;-76
2024/01/06 11:02:25;;;;;;;2.00;0.70;;;0.40;99.90;-0.80;100288;;;;566615;250;24114;-78
2024/01/06 11:04:52;;;;;;;0.70;0.70;;;0.40;99.90;-0.80;100290;;;;563300;252;24129;-78
2024/01/06 11:07:23;;;;;;;0.60;0.60;;;0.30;99.90;-0.80;100278;;;;556474;251;24121;-79
2024/01/06 11:10:03;;;;;;;0.63;0.63;;;0.30;99.90;-0.90;100280;;;;555666;252;24123;-77
2024/01/06 11:12:31;;;;;;;1.07;0.70;;;0.30;99.90;-0.80;100283;;;;557451;254;24092;-78
2024/01/06 11:15:00;;;;;;;0.50;0.50;;;0.40;99.90;-0.90;100283;;;;563615;252;24148;-80
2024/01/06 11:17:58;;;;;;;0.60;0.60;;;0.40;99.90;-0.80;100283;;;;562835;250;24121;-81
2024/01/06 11:20:26;;;;;;;0.63;0.63;;;0.40;99.90;-0.80;100284;;;;552560;252;24166;-80